createdAt,value
2022-12-02T00:00:26.234Z,65.35
2022-12-02T00:01:26.202Z,65.35
2022-12-02T00:02:26.215Z,65.45
2022-12-02T00:03:26.267Z,65.35
2022-12-02T00:04:26.315Z,65.35
2022-12-02T00:05:26.182Z,65.35
2022-12-02T00:06:26.160Z,65.35
2022-12-02T00:07:26.198Z,65.35
2022-12-02T00:08:26.146Z,65.35
2022-12-02T00:09:26.115Z,65.35
2022-12-02T00:10:26.123Z,65.25
2022-12-02T00:11:26.114Z,65.35
2022-12-02T00:12:26.097Z,65.45
2022-12-02T00:13:26.078Z,65.35
2022-12-02T00:14:26.093Z,65.35
2022-12-02T00:15:26.052Z,65.35
2022-12-02T00:16:26.161Z,65.45
2022-12-02T00:17:26.024Z,65.45
2022-12-02T00:18:26.025Z,65.45
2022-12-02T00:19:26.008Z,65.45
2022-12-02T00:20:26.012Z,65.25
2022-12-02T00:21:26.015Z,65.35
2022-12-02T00:22:25.991Z,65.35
2022-12-02T00:23:25.971Z,65.45
2022-12-02T00:24:25.972Z,65.35
2022-12-02T00:25:25.942Z,65.25
2022-12-02T00:26:25.977Z,65.25
2022-12-02T00:27:25.917Z,65.25
2022-12-02T00:28:25.919Z,65.25
2022-12-02T00:29:25.894Z,65.25
2022-12-02T00:30:25.909Z,65.15
2022-12-02T00:31:25.962Z,65.05
2022-12-02T00:32:25.909Z,65.15
2022-12-02T00:33:25.877Z,65.15
2022-12-02T00:34:25.861Z,65.05
2022-12-02T00:35:25.832Z,65.05
2022-12-02T00:36:25.839Z,65.05
2022-12-02T00:37:25.813Z,65.15
2022-12-02T00:38:25.812Z,65.15
2022-12-02T00:39:25.807Z,65.15
2022-12-02T00:40:25.792Z,65.15
2022-12-02T00:41:25.769Z,65.25
2022-12-02T00:42:25.792Z,65.15
2022-12-02T00:43:25.768Z,65.15
2022-12-02T00:44:25.746Z,65.15
2022-12-02T00:45:25.720Z,65.15
2022-12-02T00:46:25.754Z,65.15
2022-12-02T00:47:25.705Z,65.05
2022-12-02T00:48:25.726Z,65.15
2022-12-02T00:49:25.675Z,65.05
2022-12-02T00:50:25.680Z,65.05
2022-12-02T00:51:25.659Z,65.15
2022-12-02T00:52:25.659Z,64.95
2022-12-02T00:53:25.639Z,65.05
2022-12-02T00:54:25.691Z,64.95
2022-12-02T00:55:25.617Z,64.75
2022-12-02T00:56:25.622Z,64.84
2022-12-02T00:57:25.595Z,64.84
2022-12-02T00:58:25.597Z,64.95
2022-12-02T00:59:25.574Z,64.95
2022-12-02T01:00:25.597Z,64.84
2022-12-02T01:01:25.668Z,64.84
2022-12-02T01:02:25.626Z,64.65
2022-12-02T01:03:25.532Z,64.65
2022-12-02T01:04:25.541Z,64.65
2022-12-02T01:05:25.514Z,64.65
2022-12-02T01:06:25.542Z,64.54
2022-12-02T01:07:25.519Z,64.54
2022-12-02T01:08:25.499Z,64.65
2022-12-02T01:09:25.470Z,64.45
2022-12-02T01:10:25.474Z,64.54
2022-12-02T01:11:25.487Z,64.45
2022-12-02T01:12:25.452Z,64.34
2022-12-02T01:13:25.425Z,64.45
2022-12-02T01:14:25.464Z,64.34
2022-12-02T01:15:25.403Z,64.34
2022-12-02T01:16:25.464Z,64.34
2022-12-02T01:17:25.386Z,64.25
2022-12-02T01:18:25.387Z,64.25
2022-12-02T01:19:31.406Z,64.15
2022-12-02T01:20:25.366Z,64.25
2022-12-02T01:21:25.341Z,64.15
2022-12-02T01:22:25.352Z,64.15
2022-12-02T01:23:25.324Z,64.04
2022-12-02T01:24:25.324Z,64.04
2022-12-02T01:25:25.326Z,64.15
2022-12-02T01:26:25.300Z,63.95
2022-12-02T01:27:25.278Z,63.95
2022-12-02T01:28:25.282Z,63.84
2022-12-02T01:29:25.256Z,63.84
2022-12-02T01:30:25.267Z,63.84
2022-12-02T01:31:25.289Z,63.75
2022-12-02T01:32:25.240Z,63.84
2022-12-02T01:33:25.214Z,63.84
2022-12-02T01:34:25.221Z,63.84
2022-12-02T01:35:25.197Z,63.84
2022-12-02T01:36:25.207Z,63.75
2022-12-02T01:37:25.194Z,63.64
2022-12-02T01:38:25.177Z,63.64
2022-12-02T01:39:25.150Z,63.64
2022-12-02T01:40:25.171Z,63.64
2022-12-02T01:41:25.133Z,63.54
2022-12-02T01:42:25.142Z,63.64
2022-12-02T01:43:25.128Z,63.54
2022-12-02T01:44:25.109Z,63.64
2022-12-02T01:45:25.132Z,63.75
2022-12-02T01:46:25.156Z,63.64
2022-12-02T01:47:25.067Z,63.64
2022-12-02T01:48:25.095Z,63.54
2022-12-02T01:49:25.044Z,63.54
2022-12-02T01:50:25.054Z,63.54
2022-12-02T01:51:25.023Z,63.45
2022-12-02T01:52:25.028Z,63.45
2022-12-02T01:53:25.001Z,63.54
2022-12-02T01:54:25.025Z,63.54
2022-12-02T01:55:24.980Z,63.45
2022-12-02T01:56:25.026Z,63.24
2022-12-02T01:57:24.959Z,63.45
2022-12-02T01:58:24.965Z,63.54
2022-12-02T01:59:24.939Z,63.54
2022-12-02T02:00:24.971Z,63.54
2022-12-02T02:01:25.003Z,63.54
2022-12-02T02:02:24.969Z,63.54
2022-12-02T02:03:24.895Z,63.54
2022-12-02T02:04:24.925Z,63.54
2022-12-02T02:05:24.921Z,63.54
2022-12-02T02:06:24.936Z,63.54
2022-12-02T02:07:24.921Z,63.54
2022-12-02T02:08:24.856Z,63.54
2022-12-02T02:09:24.837Z,63.54
2022-12-02T02:10:24.833Z,63.54
2022-12-02T02:11:24.831Z,63.54
2022-12-02T02:12:24.825Z,63.54
2022-12-02T02:13:24.789Z,63.54
2022-12-02T02:14:24.803Z,63.54
2022-12-02T02:15:24.771Z,63.54
2022-12-02T02:16:24.867Z,63.54
2022-12-02T02:17:24.791Z,63.54
2022-12-02T02:18:24.749Z,63.54
2022-12-02T02:19:24.729Z,63.45
2022-12-02T02:20:24.737Z,63.45
2022-12-02T02:21:24.709Z,63.54
2022-12-02T02:22:24.709Z,63.64
2022-12-02T02:23:24.710Z,63.54
2022-12-02T02:24:24.683Z,63.45
2022-12-02T02:25:24.669Z,63.54
2022-12-02T02:26:24.672Z,63.54
2022-12-02T02:27:24.636Z,63.54
2022-12-02T02:28:24.748Z,63.54
2022-12-02T02:29:24.617Z,63.45
2022-12-02T02:30:24.683Z,63.45
2022-12-02T02:31:24.633Z,63.45
2022-12-02T02:32:24.604Z,63.45
2022-12-02T02:33:24.574Z,63.45
2022-12-02T02:34:24.612Z,63.54
2022-12-02T02:35:24.557Z,63.54
2022-12-02T02:36:24.556Z,63.45
2022-12-02T02:37:24.532Z,63.45
2022-12-02T02:38:24.559Z,63.45
2022-12-02T02:39:24.513Z,63.45
2022-12-02T02:40:24.510Z,63.45
2022-12-02T02:41:24.488Z,63.45
2022-12-02T02:42:24.487Z,63.45
2022-12-02T02:43:24.477Z,63.45
2022-12-02T02:44:26.002Z,63.45
2022-12-02T02:45:24.446Z,63.34
2022-12-02T02:46:24.516Z,63.34
2022-12-02T02:47:24.443Z,63.45
2022-12-02T02:48:24.425Z,63.45
2022-12-02T02:49:24.403Z,63.45
2022-12-02T02:50:24.409Z,63.34
2022-12-02T02:51:24.386Z,63.34
2022-12-02T02:52:24.386Z,63.34
2022-12-02T02:53:24.424Z,63.34
2022-12-02T02:54:24.368Z,63.24
2022-12-02T02:55:24.339Z,63.34
2022-12-02T02:56:24.398Z,63.34
2022-12-02T02:57:24.315Z,63.34
2022-12-02T02:58:24.323Z,63.24
2022-12-02T02:59:24.320Z,63.24
2022-12-02T03:00:24.301Z,63.34
2022-12-02T03:01:24.336Z,63.24
2022-12-02T03:02:24.350Z,63.24
2022-12-02T03:03:24.259Z,63.34
2022-12-02T03:04:24.269Z,63.24
2022-12-02T03:05:24.253Z,63.24
2022-12-02T03:06:24.243Z,63.14
2022-12-02T03:07:24.272Z,63.04
2022-12-02T03:08:24.211Z,62.94
2022-12-02T03:09:24.188Z,62.94
2022-12-02T03:10:24.189Z,62.94
2022-12-02T03:11:24.189Z,62.94
2022-12-02T03:12:24.169Z,63.04
2022-12-02T03:13:24.142Z,63.04
2022-12-02T03:14:24.146Z,62.94
2022-12-02T03:15:24.121Z,62.94
2022-12-02T03:16:24.244Z,62.94
2022-12-02T03:17:24.120Z,63.04
2022-12-02T03:18:24.107Z,63.04
2022-12-02T03:19:24.076Z,63.04
2022-12-02T03:20:24.079Z,63.04
2022-12-02T03:21:24.057Z,63.04
2022-12-02T03:22:24.060Z,63.04
2022-12-02T03:23:24.056Z,63.14
2022-12-02T03:24:24.044Z,63.14
2022-12-02T03:25:24.014Z,63.14
2022-12-02T03:26:24.023Z,63.14
2022-12-02T03:27:24.006Z,63.14
2022-12-02T03:28:23.980Z,63.24
2022-12-02T03:29:24.006Z,63.14
2022-12-02T03:30:23.958Z,63.14
2022-12-02T03:31:24.006Z,63.04
2022-12-02T03:32:23.933Z,63.14
2022-12-02T03:33:23.934Z,63.04
2022-12-02T03:34:23.913Z,63.14
2022-12-02T03:35:23.947Z,63.14
2022-12-02T03:36:23.889Z,63.34
2022-12-02T03:37:23.920Z,63.45
2022-12-02T03:38:23.869Z,63.45
2022-12-02T03:39:23.887Z,63.45
2022-12-02T03:40:23.872Z,63.34
2022-12-02T03:41:23.852Z,63.24
2022-12-02T03:42:23.833Z,63.34
2022-12-02T03:43:23.835Z,63.34
2022-12-02T03:44:23.806Z,63.34
2022-12-02T03:45:23.806Z,63.34
2022-12-02T03:46:23.906Z,63.34
2022-12-02T03:47:23.814Z,63.24
2022-12-02T03:48:23.761Z,63.34
2022-12-02T03:49:23.764Z,63.34
2022-12-02T03:50:23.743Z,63.34
2022-12-02T03:51:23.740Z,63.34
2022-12-02T03:52:23.719Z,63.34
2022-12-02T03:53:23.740Z,63.34
2022-12-02T03:54:23.696Z,63.34
2022-12-02T03:55:23.707Z,64.15
2022-12-02T03:56:23.679Z,64.54
2022-12-02T03:57:23.711Z,64.75
2022-12-02T03:58:23.657Z,64.75
2022-12-02T03:59:23.665Z,64.75
2022-12-02T04:00:23.634Z,64.65
2022-12-02T04:01:23.716Z,64.54
2022-12-02T04:02:23.722Z,64.45
2022-12-02T04:03:23.635Z,64.45
2022-12-02T04:04:23.592Z,64.34
2022-12-02T04:05:23.592Z,64.54
2022-12-02T04:06:23.574Z,64.54
2022-12-02T04:07:23.620Z,64.54
2022-12-02T04:08:23.571Z,64.95
2022-12-02T04:09:23.580Z,65.05
2022-12-02T04:10:23.533Z,65.05
2022-12-02T04:11:23.531Z,64.95
2022-12-02T04:12:23.520Z,64.75
2022-12-02T04:13:23.530Z,64.75
2022-12-02T04:14:23.512Z,64.84
2022-12-02T04:15:23.487Z,64.75
2022-12-02T04:16:23.555Z,64.84
2022-12-02T04:17:23.469Z,64.75
2022-12-02T04:18:23.487Z,64.75
2022-12-02T04:19:23.448Z,64.65
2022-12-02T04:20:23.421Z,64.75
2022-12-02T04:21:23.442Z,64.84
2022-12-02T04:22:23.400Z,64.84
2022-12-02T04:23:23.435Z,64.95
2022-12-02T04:24:23.398Z,64.84
2022-12-02T04:25:23.398Z,64.84
2022-12-02T04:26:23.352Z,64.54
2022-12-02T04:27:23.363Z,64.45
2022-12-02T04:28:23.331Z,64.45
2022-12-02T04:29:23.345Z,64.45
2022-12-02T04:30:23.331Z,64.45
2022-12-02T04:31:23.376Z,64.65
2022-12-02T04:32:23.288Z,64.75
2022-12-02T04:33:23.307Z,64.75
2022-12-02T04:34:23.280Z,64.75
2022-12-02T04:35:23.294Z,64.84
2022-12-02T04:36:23.246Z,64.75
2022-12-02T04:37:23.252Z,64.75
2022-12-02T04:38:23.225Z,64.75
2022-12-02T04:39:23.235Z,64.95
2022-12-02T04:40:23.201Z,64.95
2022-12-02T04:41:23.233Z,64.95
2022-12-02T04:42:23.182Z,65.05
2022-12-02T04:43:23.201Z,64.95
2022-12-02T04:44:23.158Z,64.92
2022-12-02T04:45:23.170Z,64.92
2022-12-02T04:46:23.167Z,65.01
2022-12-02T04:47:23.169Z,65.12
2022-12-02T04:48:23.119Z,65.12
2022-12-02T04:49:23.121Z,65.12
2022-12-02T04:50:23.100Z,64.92
2022-12-02T04:51:23.129Z,64.81
2022-12-02T04:52:23.079Z,64.81
2022-12-02T04:53:23.111Z,64.81
2022-12-02T04:54:23.056Z,65.01
2022-12-02T04:55:23.058Z,65.01
2022-12-02T04:56:23.034Z,64.92
2022-12-02T04:57:28.015Z,64.81
2022-12-02T04:58:23.018Z,64.72
2022-12-02T04:59:23.043Z,64.51
2022-12-02T05:00:22.994Z,64.42
2022-12-02T05:01:22.999Z,64.62
2022-12-02T05:02:22.996Z,64.31
2022-12-02T05:03:23.073Z,64.22
2022-12-02T05:04:23.002Z,65.12
2022-12-02T05:05:22.986Z,65.31
2022-12-02T05:06:22.933Z,64.31
2022-12-02T05:07:22.975Z,64.42
2022-12-02T05:08:22.908Z,64.51
2022-12-02T05:09:22.912Z,64.62
2022-12-02T05:10:22.908Z,64.81
2022-12-02T05:11:22.903Z,64.42
2022-12-02T05:12:22.867Z,63.42
2022-12-02T05:13:22.877Z,64.22
2022-12-02T05:14:22.845Z,64.81
2022-12-02T05:15:22.845Z,64.81
2022-12-02T05:16:22.964Z,64.72
2022-12-02T05:17:22.825Z,64.51
2022-12-02T05:18:22.803Z,64.42
2022-12-02T05:19:22.804Z,64.31
2022-12-02T05:20:22.779Z,64.31
2022-12-02T05:21:22.794Z,64.31
2022-12-02T05:22:22.794Z,64.42
2022-12-02T05:23:22.788Z,64.62
2022-12-02T05:24:22.739Z,64.81
2022-12-02T05:25:22.691Z,64.92
2022-12-02T05:26:22.662Z,64.72
2022-12-02T05:27:22.666Z,64.51
2022-12-02T05:28:22.642Z,64.42
2022-12-02T05:29:22.667Z,64.22
2022-12-02T05:30:22.620Z,64.12
2022-12-02T05:31:22.670Z,63.92
2022-12-02T05:32:22.597Z,63.21
2022-12-02T05:33:22.601Z,63.01
2022-12-02T05:34:22.608Z,62.81
2022-12-02T05:35:22.622Z,63.01
2022-12-02T05:36:22.554Z,63.11
2022-12-02T05:37:22.555Z,63.21
2022-12-02T05:38:22.532Z,63.31
2022-12-02T05:39:22.535Z,63.21
2022-12-02T05:40:22.547Z,63.21
2022-12-02T05:41:22.513Z,63.31
2022-12-02T05:42:22.515Z,63.42
2022-12-02T05:43:22.487Z,63.31
2022-12-02T05:44:22.474Z,63.31
2022-12-02T05:45:22.471Z,63.21
2022-12-02T05:46:22.512Z,63.01
2022-12-02T05:47:22.443Z,62.92
2022-12-02T05:48:22.443Z,62.81
2022-12-02T05:49:22.425Z,62.81
2022-12-02T05:50:22.401Z,62.81
2022-12-02T05:51:22.399Z,62.92
2022-12-02T05:52:22.378Z,62.92
2022-12-02T05:53:22.400Z,63.01
2022-12-02T05:54:22.379Z,63.11
2022-12-02T05:55:22.373Z,63.21
2022-12-02T05:56:22.331Z,63.21
2022-12-02T05:57:27.478Z,63.21
2022-12-02T05:58:22.319Z,63.21
2022-12-02T05:59:22.317Z,63.11
2022-12-02T06:00:22.306Z,63.01
2022-12-02T06:01:22.300Z,63.11
2022-12-02T06:02:22.380Z,63.01
2022-12-02T06:03:22.534Z,62.92
2022-12-02T06:04:22.242Z,63.11
2022-12-02T06:05:22.249Z,63.21
2022-12-02T06:06:22.241Z,63.11
2022-12-02T06:07:22.261Z,63.01
2022-12-02T06:08:22.199Z,63.01
2022-12-02T06:09:22.198Z,63.11
2022-12-02T06:10:22.195Z,63.01
2022-12-02T06:11:22.184Z,63.11
2022-12-02T06:12:22.177Z,63.01
2022-12-02T06:13:22.189Z,62.92
2022-12-02T06:14:22.132Z,62.92
2022-12-02T06:15:22.144Z,63.01
2022-12-02T06:16:22.154Z,63.01
2022-12-02T06:17:22.134Z,63.01
2022-12-02T06:18:22.093Z,63.01
2022-12-02T06:19:22.100Z,63.11
2022-12-02T06:20:22.068Z,63.11
2022-12-02T06:21:22.102Z,63.01
2022-12-02T06:22:22.049Z,62.92
2022-12-02T06:23:22.097Z,62.92
2022-12-02T06:24:22.040Z,63.01
2022-12-02T06:25:22.034Z,63.11
2022-12-02T06:26:22.009Z,63.11
2022-12-02T06:27:22.013Z,63.01
2022-12-02T06:28:21.979Z,63.01
2022-12-02T06:29:22.024Z,63.11
2022-12-02T06:30:21.959Z,63.01
2022-12-02T06:31:22.042Z,63.01
2022-12-02T06:32:21.939Z,63.11
2022-12-02T06:33:22.820Z,63.11
2022-12-02T06:34:21.934Z,63.11
2022-12-02T06:35:21.968Z,63.11
2022-12-02T06:36:21.947Z,63.11
2022-12-02T06:37:21.966Z,63.14
2022-12-02T06:38:21.922Z,63.11
2022-12-02T06:39:21.993Z,63.11
2022-12-02T06:40:29.756Z,63.14
2022-12-02T06:41:21.909Z,63.11
2022-12-02T06:42:21.874Z,62.74
2022-12-02T06:43:21.888Z,62.44
2022-12-02T06:44:21.861Z,62.61
2022-12-02T06:45:28.724Z,62.74
2022-12-02T06:46:21.864Z,62.84
2022-12-02T06:47:21.837Z,62.94
2022-12-02T06:48:21.817Z,62.94
2022-12-02T06:49:21.813Z,62.94
2022-12-02T06:50:21.813Z,62.92
2022-12-02T06:51:21.804Z,62.94
2022-12-02T06:52:21.783Z,62.94
2022-12-02T06:53:21.779Z,62.92
2022-12-02T06:54:21.749Z,62.94
2022-12-02T06:55:21.763Z,62.94
2022-12-02T06:56:21.745Z,62.94
2022-12-02T06:57:21.730Z,62.94
2022-12-02T06:58:21.707Z,62.94
2022-12-02T06:59:21.705Z,62.94
2022-12-02T07:00:21.681Z,62.94
2022-12-02T07:01:21.747Z,62.84
2022-12-02T07:02:21.705Z,62.94
2022-12-02T07:03:21.669Z,62.94
2022-12-02T07:04:21.641Z,62.94
2022-12-02T07:05:21.657Z,62.94
2022-12-02T07:06:21.634Z,63.14
2022-12-02T07:07:21.825Z,63.14
2022-12-02T07:08:21.585Z,63.14
2022-12-02T07:09:21.588Z,63.04
2022-12-02T07:10:21.588Z,63.04
2022-12-02T07:11:21.563Z,62.94
2022-12-02T07:12:21.544Z,62.94
2022-12-02T07:13:21.556Z,62.94
2022-12-02T07:14:21.525Z,62.94
2022-12-02T07:15:21.509Z,62.94
2022-12-02T07:16:21.573Z,62.94
2022-12-02T07:17:21.505Z,62.94
2022-12-02T07:18:21.482Z,62.84
2022-12-02T07:20:17.073Z,62.84
2022-12-02T07:21:18.029Z,62.84
2022-12-02T07:22:18.036Z,62.74
2022-12-02T07:23:18.008Z,62.84
2022-12-02T07:24:18.021Z,62.84
2022-12-02T07:25:18.036Z,62.84
2022-12-02T07:26:17.996Z,62.84
2022-12-02T07:27:17.982Z,62.84
2022-12-02T07:28:17.962Z,62.84
2022-12-02T07:29:17.939Z,62.84
2022-12-02T07:30:17.946Z,62.84
2022-12-02T07:31:18.035Z,62.84
2022-12-02T07:32:17.928Z,62.84
2022-12-02T07:33:17.900Z,62.84
2022-12-02T07:34:17.909Z,62.84
2022-12-02T07:35:17.884Z,62.84
2022-12-02T07:36:17.905Z,62.84
2022-12-02T07:37:17.862Z,62.84
2022-12-02T07:38:31.681Z,62.84
2022-12-02T07:39:17.848Z,62.84
2022-12-02T07:40:17.848Z,62.84
2022-12-02T07:41:17.818Z,62.84
2022-12-02T07:42:17.858Z,62.84
2022-12-02T07:43:17.797Z,62.84
2022-12-02T07:44:17.797Z,62.84
2022-12-02T07:45:17.780Z,62.84
2022-12-02T07:46:17.852Z,62.84
2022-12-02T07:47:17.778Z,62.84
2022-12-02T07:48:17.762Z,62.84
2022-12-02T07:49:17.738Z,62.84
2022-12-02T07:50:17.736Z,62.84
2022-12-02T07:51:17.712Z,62.84
2022-12-02T07:52:17.718Z,62.84
2022-12-02T07:53:17.716Z,62.84
2022-12-02T07:54:17.695Z,62.84
2022-12-02T07:55:22.717Z,62.84
2022-12-02T07:56:17.680Z,62.84
2022-12-02T07:57:17.645Z,62.84
2022-12-02T07:58:17.647Z,62.84
2022-12-02T07:59:17.653Z,62.84
2022-12-02T08:00:17.635Z,62.84
2022-12-02T08:01:19.619Z,62.84
2022-12-02T08:02:17.614Z,62.84
2022-12-02T08:03:17.586Z,62.84
2022-12-02T08:04:17.697Z,62.84
2022-12-02T08:05:17.641Z,62.84
2022-12-02T08:06:17.574Z,62.84
2022-12-02T08:07:17.538Z,62.84
2022-12-02T08:08:17.538Z,62.84
2022-12-02T08:09:17.542Z,62.84
2022-12-02T08:10:17.522Z,62.84
2022-12-02T08:11:17.500Z,62.74
2022-12-02T08:12:17.502Z,62.74
2022-12-02T08:13:17.496Z,62.74
2022-12-02T08:14:17.487Z,62.74
2022-12-02T08:15:17.455Z,62.74
2022-12-02T08:16:17.490Z,62.74
2022-12-02T08:17:17.433Z,62.74
2022-12-02T08:18:17.436Z,62.74
2022-12-02T08:19:17.443Z,62.64
2022-12-02T08:20:17.415Z,62.64
2022-12-02T08:21:17.390Z,62.64
2022-12-02T08:22:17.397Z,62.64
2022-12-02T08:23:17.379Z,62.64
2022-12-02T08:24:17.376Z,62.64
2022-12-02T08:25:17.378Z,62.64
2022-12-02T08:26:17.362Z,62.64
2022-12-02T08:27:17.331Z,62.64
2022-12-02T08:28:17.329Z,62.64
2022-12-02T08:29:17.320Z,62.64
2022-12-02T08:30:17.354Z,62.64
2022-12-02T08:31:17.351Z,62.64
2022-12-02T08:32:17.318Z,62.54
2022-12-02T08:33:17.266Z,62.64
2022-12-02T08:34:17.285Z,62.54
2022-12-02T08:35:17.247Z,62.64
2022-12-02T08:36:17.443Z,62.64
2022-12-02T08:37:17.225Z,62.54
2022-12-02T08:38:17.239Z,62.54
2022-12-02T08:39:17.204Z,62.54
2022-12-02T08:40:17.214Z,62.54
2022-12-02T08:41:17.196Z,62.64
2022-12-02T08:42:17.212Z,62.54
2022-12-02T08:43:17.165Z,62.54
2022-12-02T08:44:17.173Z,62.54
2022-12-02T08:45:17.190Z,62.64
2022-12-02T08:46:17.190Z,62.54
2022-12-02T08:47:17.118Z,62.54
2022-12-02T08:48:17.120Z,62.54
2022-12-02T08:49:17.097Z,62.54
2022-12-02T08:50:17.123Z,62.54
2022-12-02T08:51:17.073Z,62.54
2022-12-02T08:52:17.078Z,62.54
2022-12-02T08:53:17.053Z,62.54
2022-12-02T08:54:17.055Z,62.54
2022-12-02T08:55:17.034Z,62.54
2022-12-02T08:56:17.062Z,62.54
2022-12-02T08:57:17.043Z,62.54
2022-12-02T08:58:17.019Z,62.54
2022-12-02T08:59:17.020Z,62.54
2022-12-02T09:00:16.992Z,62.54
2022-12-02T09:01:17.068Z,62.54
2022-12-02T09:02:16.949Z,62.54
2022-12-02T09:03:16.948Z,62.54
2022-12-02T09:04:16.952Z,62.54
2022-12-02T09:05:17.087Z,62.54
2022-12-02T09:06:16.935Z,62.54
2022-12-02T09:07:16.908Z,62.54
2022-12-02T09:08:16.914Z,62.54
2022-12-02T09:09:16.925Z,62.54
2022-12-02T09:10:17.011Z,62.54
2022-12-02T09:11:16.884Z,62.54
2022-12-02T09:12:16.862Z,62.54
2022-12-02T09:13:16.840Z,62.54
2022-12-02T09:14:16.840Z,62.54
2022-12-02T09:15:16.836Z,62.54
2022-12-02T09:16:16.862Z,62.54
2022-12-02T09:17:16.793Z,62.44
2022-12-02T09:18:16.808Z,62.54
2022-12-02T09:19:16.772Z,62.44
2022-12-02T09:20:16.780Z,62.54
2022-12-02T09:21:16.776Z,62.54
2022-12-02T09:22:16.752Z,62.54
2022-12-02T09:23:16.729Z,62.54
2022-12-02T09:24:16.729Z,62.54
2022-12-02T09:25:16.706Z,62.44
2022-12-02T09:26:16.710Z,62.44
2022-12-02T09:27:16.708Z,62.44
2022-12-02T09:28:16.692Z,62.44
2022-12-02T09:29:16.654Z,62.44
2022-12-02T09:30:16.658Z,62.44
2022-12-02T09:31:16.733Z,62.44
2022-12-02T09:32:16.636Z,62.44
2022-12-02T09:33:16.636Z,62.44
2022-12-02T09:34:16.561Z,62.54
2022-12-02T09:35:16.594Z,62.54
2022-12-02T09:36:16.596Z,62.44
2022-12-02T09:37:16.568Z,62.34
2022-12-02T09:38:16.573Z,62.44
2022-12-02T09:39:16.576Z,62.54
2022-12-02T09:40:16.543Z,62.54
2022-12-02T09:41:16.545Z,62.54
2022-12-02T09:42:16.514Z,62.54
2022-12-02T09:43:16.545Z,62.54
2022-12-02T09:44:16.511Z,62.54
2022-12-02T09:45:16.454Z,62.54
2022-12-02T09:46:21.022Z,62.64
2022-12-02T09:47:16.429Z,62.54
2022-12-02T09:48:16.392Z,62.44
2022-12-02T09:49:16.392Z,62.44
2022-12-02T09:50:16.390Z,62.44
2022-12-02T09:51:16.378Z,62.44
2022-12-02T09:52:19.781Z,62.34
2022-12-02T09:53:16.363Z,62.34
2022-12-02T09:54:16.341Z,62.34
2022-12-02T09:55:16.348Z,62.34
2022-12-02T09:56:16.308Z,62.34
2022-12-02T09:57:16.335Z,62.34
2022-12-02T09:58:16.291Z,62.34
2022-12-02T09:59:16.286Z,62.24
2022-12-02T10:00:16.280Z,62.34
2022-12-02T10:01:16.408Z,62.34
2022-12-02T10:02:16.306Z,62.34
2022-12-02T10:03:19.030Z,62.24
2022-12-02T10:04:16.217Z,62.34
2022-12-02T10:05:16.222Z,62.24
2022-12-02T10:06:16.237Z,62.24
2022-12-02T10:07:16.213Z,62.24
2022-12-02T10:08:16.285Z,62.24
2022-12-02T10:09:16.208Z,62.14
2022-12-02T10:10:16.170Z,62.14
2022-12-02T10:11:16.170Z,62.14
2022-12-02T10:12:16.145Z,62.24
2022-12-02T10:13:16.146Z,62.24
2022-12-02T10:14:16.142Z,62.24
2022-12-02T10:15:16.124Z,62.34
2022-12-02T10:16:16.194Z,62.34
2022-12-02T10:17:16.127Z,62.34
2022-12-02T10:18:16.078Z,62.34
2022-12-02T10:19:16.078Z,62.34
2022-12-02T10:20:16.072Z,62.34
2022-12-02T10:21:16.061Z,62.44
2022-12-02T10:22:16.038Z,62.44
2022-12-02T10:23:16.043Z,62.44
2022-12-02T10:24:16.013Z,62.44
2022-12-02T10:25:16.042Z,62.44
2022-12-02T10:26:15.991Z,62.44
2022-12-02T10:27:16.001Z,62.44
2022-12-02T10:28:15.971Z,62.44
2022-12-02T10:29:15.980Z,62.44
2022-12-02T10:30:15.944Z,62.44
2022-12-02T10:31:16.187Z,62.44
2022-12-02T10:32:15.928Z,62.44
2022-12-02T10:33:15.931Z,62.44
2022-12-02T10:34:15.901Z,62.54
2022-12-02T10:35:15.930Z,62.54
2022-12-02T10:36:15.882Z,62.54
2022-12-02T10:37:15.893Z,62.54
2022-12-02T10:38:15.864Z,62.44
2022-12-02T10:39:15.909Z,62.44
2022-12-02T10:40:15.895Z,62.44
2022-12-02T10:41:15.860Z,62.44
2022-12-02T10:42:15.821Z,62.44
2022-12-02T10:43:15.904Z,62.44
2022-12-02T10:44:15.814Z,62.44
2022-12-02T10:45:15.822Z,62.54
2022-12-02T10:46:15.820Z,62.44
2022-12-02T10:47:15.786Z,62.44
2022-12-02T10:48:15.758Z,62.34
2022-12-02T10:49:15.768Z,61.84
2022-12-02T10:50:15.752Z,61.74
2022-12-02T10:51:15.763Z,61.94
2022-12-02T10:52:15.721Z,62.04
2022-12-02T10:53:15.724Z,61.44
2022-12-02T10:54:15.699Z,60.33
2022-12-02T10:55:15.707Z,59.33
2022-12-02T10:56:15.687Z,58.83
2022-12-02T10:57:15.716Z,58.73
2022-12-02T10:58:15.660Z,59.13
2022-12-02T10:59:15.744Z,59.44
2022-12-02T11:00:15.642Z,59.64
2022-12-02T11:01:15.744Z,59.44
2022-12-02T11:02:15.723Z,59.64
2022-12-02T11:03:15.627Z,60.03
2022-12-02T11:04:15.602Z,60.14
2022-12-02T11:05:15.619Z,60.33
2022-12-02T11:06:15.574Z,60.74
2022-12-02T11:07:15.612Z,60.53
2022-12-02T11:08:19.219Z,60.33
2022-12-02T11:09:39.249Z,60.44
2022-12-02T11:10:15.577Z,60.44
2022-12-02T11:11:15.538Z,60.64
2022-12-02T11:12:15.519Z,60.84
2022-12-02T11:13:15.551Z,60.74
2022-12-02T11:14:15.503Z,60.64
2022-12-02T11:15:15.489Z,60.64
2022-12-02T11:16:15.551Z,60.74
2022-12-02T11:17:15.548Z,60.74
2022-12-02T11:18:15.528Z,60.94
2022-12-02T11:19:15.476Z,61.14
2022-12-02T11:20:15.714Z,61.24
2022-12-02T11:21:15.438Z,61.24
2022-12-02T11:22:15.411Z,61.24
2022-12-02T11:23:15.416Z,61.24
2022-12-02T11:24:15.381Z,61.34
2022-12-02T11:25:15.406Z,61.44
2022-12-02T11:26:15.370Z,61.54
2022-12-02T11:27:18.695Z,61.54
2022-12-02T11:28:15.342Z,61.54
2022-12-02T11:29:15.350Z,61.64
2022-12-02T11:30:15.368Z,61.64
2022-12-02T11:31:15.454Z,61.54
2022-12-02T11:32:15.299Z,61.64
2022-12-02T11:33:15.331Z,61.64
2022-12-02T11:34:15.417Z,61.54
2022-12-02T11:35:18.692Z,61.44
2022-12-02T11:36:15.314Z,61.54
2022-12-02T11:37:15.288Z,61.64
2022-12-02T11:38:15.253Z,61.64
2022-12-02T11:39:15.263Z,61.64
2022-12-02T11:40:15.243Z,61.64
2022-12-02T11:41:16.405Z,61.64
2022-12-02T11:42:15.414Z,61.64
2022-12-02T11:43:15.226Z,61.44
2022-12-02T11:44:15.178Z,61.44
2022-12-02T11:45:15.196Z,61.44
2022-12-02T11:46:15.499Z,61.54
2022-12-02T11:47:15.155Z,61.54
2022-12-02T11:48:15.149Z,61.54
2022-12-02T11:49:15.141Z,61.54
2022-12-02T11:50:15.108Z,61.54
2022-12-02T11:51:15.137Z,61.54
2022-12-02T11:52:15.089Z,61.54
2022-12-02T11:53:15.114Z,61.64
2022-12-02T11:54:15.088Z,61.64
2022-12-02T11:55:15.076Z,61.64
2022-12-02T11:56:15.046Z,61.64
2022-12-02T11:57:15.056Z,61.64
2022-12-02T11:58:15.052Z,61.64
2022-12-02T11:59:15.029Z,61.54
2022-12-02T12:00:15.007Z,61.54
2022-12-02T12:01:15.039Z,61.54
2022-12-02T12:02:15.065Z,61.64
2022-12-02T12:03:15.243Z,61.64
2022-12-02T12:04:14.982Z,61.54
2022-12-02T12:05:15.006Z,61.54
2022-12-02T12:06:14.942Z,61.54
2022-12-02T12:07:14.981Z,61.54
2022-12-02T12:08:15.067Z,61.54
2022-12-02T12:09:14.931Z,61.54
2022-12-02T12:10:15.037Z,61.54
2022-12-02T12:11:14.951Z,61.54
2022-12-02T12:12:14.921Z,61.54
2022-12-02T12:13:14.909Z,61.54
2022-12-02T12:14:14.971Z,61.64
2022-12-02T12:15:14.867Z,61.74
2022-12-02T12:16:14.919Z,61.74
2022-12-02T12:17:14.912Z,61.64
2022-12-02T12:18:14.880Z,61.64
2022-12-02T12:19:14.831Z,61.64
2022-12-02T12:20:14.854Z,61.54
2022-12-02T12:21:14.809Z,61.54
2022-12-02T12:22:14.812Z,61.54
2022-12-02T12:23:14.843Z,61.64
2022-12-02T12:24:14.784Z,61.64
2022-12-02T12:25:16.498Z,61.54
2022-12-02T12:26:14.817Z,61.54
2022-12-02T12:27:14.750Z,61.64
2022-12-02T12:28:14.759Z,61.64
2022-12-02T12:29:14.739Z,61.64
2022-12-02T12:30:14.715Z,61.54
2022-12-02T12:31:14.780Z,61.64
2022-12-02T12:32:14.793Z,61.74
2022-12-02T12:33:14.672Z,61.84
2022-12-02T12:34:14.656Z,61.94
2022-12-02T12:35:14.647Z,61.94
2022-12-02T12:36:14.647Z,61.94
2022-12-02T12:37:14.630Z,61.84
2022-12-02T12:38:14.607Z,61.74
2022-12-02T12:39:14.622Z,61.74
2022-12-02T12:40:14.723Z,61.74
2022-12-02T12:41:19.216Z,61.74
2022-12-02T12:42:14.584Z,61.74
2022-12-02T12:43:14.589Z,61.74
2022-12-02T12:44:14.551Z,61.74
2022-12-02T12:45:14.564Z,61.74
2022-12-02T12:46:14.641Z,61.74
2022-12-02T12:47:14.537Z,61.74
2022-12-02T12:48:14.500Z,61.74
2022-12-02T12:49:14.559Z,61.74
2022-12-02T12:50:14.538Z,61.74
2022-12-02T12:51:14.491Z,61.84
2022-12-02T12:52:14.460Z,61.84
2022-12-02T12:53:14.458Z,62.04